createdAt,value
2023-03-29T00:01:52.971Z,5.53
2023-03-29T00:04:22.832Z,5.88
2023-03-29T00:06:50.502Z,5.55
2023-03-29T00:09:18.148Z,5.27
2023-03-29T00:11:45.953Z,5.50
2023-03-29T00:14:13.603Z,5.13
2023-03-29T00:16:41.307Z,5.40
2023-03-29T00:19:08.905Z,5.80
2023-03-29T00:21:37.802Z,5.73
2023-03-29T00:24:05.627Z,5.78
2023-03-29T00:26:33.169Z,5.95
2023-03-29T00:29:00.839Z,5.35
2023-03-29T00:31:28.603Z,5.18
2023-03-29T00:33:56.733Z,5.07
2023-03-29T00:36:24.409Z,5.35
2023-03-29T00:38:53.267Z,5.45
2023-03-29T00:41:21.525Z,4.65
2023-03-29T00:43:53.802Z,5.50
2023-03-29T00:46:21.372Z,5.07
2023-03-29T00:48:49.588Z,4.90
2023-03-29T00:51:19.988Z,4.75
2023-03-29T00:53:51.276Z,5.10
2023-03-29T00:56:24.188Z,5.10
2023-03-29T00:58:58.400Z,5.30
2023-03-29T01:01:33.946Z,4.40
2023-03-29T01:04:08.296Z,4.60
2023-03-29T01:06:39.501Z,4.95
2023-03-29T01:09:13.613Z,5.00
2023-03-29T01:11:47.017Z,5.00
2023-03-29T01:14:20.728Z,4.75
2023-03-29T01:16:48.729Z,5.50
2023-03-29T01:19:21.287Z,4.60
2023-03-29T01:21:53.617Z,4.82
2023-03-29T01:24:41.908Z,5.00
2023-03-29T01:27:18.006Z,4.63
2023-03-29T01:29:50.333Z,5.00
2023-03-29T01:32:23.126Z,4.95
2023-03-29T01:34:56.445Z,5.30
2023-03-29T01:37:29.990Z,5.20
2023-03-29T01:39:57.632Z,4.75
2023-03-29T01:42:35.646Z,4.57
2023-03-29T01:45:14.176Z,4.80
2023-03-29T01:47:47.991Z,4.95
2023-03-29T01:50:20.238Z,5.57
2023-03-29T01:52:55.145Z,5.13
2023-03-29T01:55:26.828Z,5.30
2023-03-29T01:57:57.215Z,5.10
2023-03-29T02:00:29.473Z,4.53
2023-03-29T02:03:04.388Z,5.40
2023-03-29T02:05:32.641Z,4.88
2023-03-29T02:08:02.481Z,4.50
2023-03-29T02:10:33.288Z,4.90
2023-03-29T02:13:01.341Z,5.00
2023-03-29T02:15:30.369Z,5.27
2023-03-29T02:17:58.079Z,5.22
2023-03-29T02:20:31.485Z,5.03
2023-03-29T02:23:05.786Z,4.72
2023-03-29T02:25:33.545Z,4.80
2023-03-29T02:28:02.116Z,5.30
2023-03-29T02:30:39.274Z,4.90
2023-03-29T02:33:11.825Z,5.35
2023-03-29T02:35:46.079Z,5.50
2023-03-29T02:38:14.595Z,5.20
2023-03-29T02:40:43.798Z,5.30
2023-03-29T02:43:13.790Z,4.93
2023-03-29T02:45:44.408Z,5.05
2023-03-29T02:48:19.046Z,5.22
2023-03-29T02:50:50.871Z,5.05
2023-03-29T02:53:24.052Z,5.23
2023-03-29T02:55:52.802Z,4.75
2023-03-29T02:58:28.582Z,4.93
2023-03-29T03:01:01.726Z,5.13
2023-03-29T03:03:29.909Z,5.03
2023-03-29T03:06:01.516Z,4.70
2023-03-29T03:08:30.880Z,4.93
2023-03-29T03:10:59.603Z,4.20
2023-03-29T03:13:27.424Z,4.13
2023-03-29T03:15:55.039Z,4.68
2023-03-29T03:18:24.035Z,4.53
2023-03-29T03:20:59.126Z,4.57
2023-03-29T03:23:26.830Z,4.28
2023-03-29T03:25:55.130Z,4.40
2023-03-29T03:28:24.151Z,4.32
2023-03-29T03:30:51.708Z,4.50
2023-03-29T03:33:39.337Z,4.20
2023-03-29T03:36:36.166Z,4.20
2023-03-29T03:39:06.872Z,3.90
2023-03-29T03:41:35.671Z,4.00
2023-03-29T03:44:04.307Z,3.70
2023-03-29T03:46:32.358Z,3.78
2023-03-29T03:49:04.494Z,3.90
2023-03-29T03:51:41.828Z,3.97
2023-03-29T03:54:10.090Z,4.50
2023-03-29T03:56:38.072Z,3.70
2023-03-29T03:59:12.786Z,4.00
2023-03-29T04:02:03.946Z,3.58
2023-03-29T04:04:34.223Z,3.70
2023-03-29T04:07:20.573Z,3.70
2023-03-29T04:10:17.161Z,3.80
2023-03-29T04:12:51.840Z,4.00
2023-03-29T04:15:21.546Z,3.90
2023-03-29T04:17:57.395Z,4.68
2023-03-29T04:20:35.855Z,3.92
2023-03-29T04:23:03.611Z,4.00
2023-03-29T04:25:32.305Z,4.18
2023-03-29T04:28:00.815Z,3.80
2023-03-29T04:30:41.090Z,3.80
2023-03-29T04:33:19.889Z,4.30
2023-03-29T04:35:55.300Z,4.30
2023-03-29T04:38:23.673Z,4.32
2023-03-29T04:40:54.879Z,4.10
2023-03-29T04:43:41.252Z,4.35
2023-03-29T04:46:17.645Z,4.63
2023-03-29T04:49:07.981Z,4.80
2023-03-29T04:51:41.057Z,4.88
2023-03-29T04:54:09.622Z,4.75
2023-03-29T04:56:56.645Z,4.53
2023-03-29T04:59:44.575Z,5.40
2023-03-29T05:02:50.373Z,4.97
2023-03-29T05:05:18.326Z,5.25
2023-03-29T05:07:49.595Z,5.22
2023-03-29T05:10:21.781Z,5.85
2023-03-29T05:12:53.851Z,5.50
2023-03-29T05:15:22.947Z,6.50
2023-03-29T05:17:50.770Z,5.80
2023-03-29T05:20:18.740Z,6.53
2023-03-29T05:22:49.526Z,8.13
2023-03-29T05:25:40.473Z,6.75
2023-03-29T05:28:08.523Z,6.33
2023-03-29T05:30:36.228Z,6.90
2023-03-29T05:33:22.423Z,6.60
2023-03-29T05:35:50.040Z,6.70
2023-03-29T05:38:19.066Z,6.75
2023-03-29T05:40:46.748Z,7.50
2023-03-29T05:43:39.405Z,9.18
2023-03-29T05:46:07.638Z,7.78
2023-03-29T05:48:37.461Z,7.90
2023-03-29T05:51:06.206Z,7.70
2023-03-29T05:53:35.265Z,8.53
2023-03-29T05:56:03.911Z,8.40
2023-03-29T05:58:31.622Z,8.27
2023-03-29T06:01:00.700Z,8.50
2023-03-29T06:03:53.419Z,8.57
2023-03-29T06:06:24.688Z,8.67
2023-03-29T06:08:53.969Z,8.27
2023-03-29T06:11:31.538Z,8.93
2023-03-29T06:14:23.241Z,8.77
2023-03-29T06:16:56.560Z,8.32
2023-03-29T06:19:24.511Z,8.87
2023-03-29T06:21:53.143Z,8.80
2023-03-29T06:24:26.912Z,8.15
2023-03-29T06:27:01.595Z,7.70
2023-03-29T06:29:30.911Z,9.48
2023-03-29T06:31:58.764Z,8.40
2023-03-29T06:34:46.645Z,8.07
2023-03-29T06:37:26.276Z,7.93
2023-03-29T06:40:07.300Z,8.13
2023-03-29T06:42:44.610Z,8.77
2023-03-29T06:45:33.949Z,8.47
2023-03-29T06:48:05.856Z,7.75
2023-03-29T06:50:33.493Z,8.15
2023-03-29T06:53:20.518Z,8.70
2023-03-29T06:55:56.937Z,7.07
2023-03-29T06:58:41.781Z,7.83
2023-03-29T07:01:28.838Z,7.70
2023-03-29T07:04:08.138Z,7.80
2023-03-29T07:06:51.171Z,6.90
2023-03-29T07:09:20.416Z,7.63
2023-03-29T07:12:09.898Z,7.43
2023-03-29T07:14:37.646Z,7.22
2023-03-29T07:17:05.732Z,6.75
2023-03-29T07:19:35.020Z,6.97
2023-03-29T07:22:09.795Z,6.80
2023-03-29T07:24:54.431Z,6.67
2023-03-29T07:27:23.609Z,6.20
2023-03-29T07:29:51.346Z,6.28
2023-03-29T07:32:19.986Z,6.40
2023-03-29T07:34:58.398Z,6.20
2023-03-29T07:37:32.394Z,5.60
2023-03-29T07:40:00.989Z,6.40
2023-03-29T07:42:30.141Z,6.45
2023-03-29T07:44:58.438Z,5.95
2023-03-29T07:47:30.541Z,5.72
2023-03-29T07:49:59.392Z,5.90
2023-03-29T07:52:29.861Z,5.70
2023-03-29T07:54:57.979Z,6.15
2023-03-29T07:57:33.925Z,5.38
2023-03-29T08:00:10.681Z,5.80
2023-03-29T08:02:41.998Z,5.83
2023-03-29T08:05:12.661Z,5.60
2023-03-29T08:07:50.393Z,5.28
2023-03-29T08:10:47.453Z,5.82
2023-03-29T08:13:37.261Z,5.18
2023-03-29T08:16:23.383Z,5.83
2023-03-29T08:19:03.276Z,5.40
2023-03-29T08:21:47.938Z,5.57
2023-03-29T08:24:17.230Z,6.43
2023-03-29T08:26:50.249Z,5.40
2023-03-29T08:29:22.249Z,5.53
2023-03-29T08:31:50.160Z,5.60
2023-03-29T08:34:17.905Z,5.53
2023-03-29T08:37:04.843Z,5.22
2023-03-29T08:39:39.137Z,5.15
2023-03-29T08:42:38.215Z,5.20
2023-03-29T08:45:15.566Z,5.05
2023-03-29T08:47:55.102Z,5.30
2023-03-29T08:50:31.612Z,5.70
2023-03-29T08:53:03.435Z,5.18
2023-03-29T08:55:59.105Z,5.03
2023-03-29T08:58:55.157Z,5.82
2023-03-29T09:01:26.341Z,5.00
2023-03-29T09:04:04.728Z,5.07
2023-03-29T09:06:57.773Z,5.07
2023-03-29T09:09:34.971Z,5.10
2023-03-29T09:12:24.025Z,5.30
2023-03-29T09:15:04.053Z,5.50
2023-03-29T09:17:41.522Z,4.93
2023-03-29T09:20:22.824Z,5.45
2023-03-29T09:23:03.525Z,5.10
2023-03-29T09:25:54.425Z,4.70
2023-03-29T09:28:36.984Z,4.95
2023-03-29T09:31:12.835Z,4.97
2023-03-29T09:33:47.696Z,4.97
2023-03-29T09:36:23.243Z,4.77
2023-03-29T09:38:54.464Z,5.18
2023-03-29T09:41:31.419Z,4.93
2023-03-29T09:44:07.339Z,5.35
2023-03-29T09:46:43.227Z,4.70
2023-03-29T09:49:17.621Z,5.23
2023-03-29T09:51:49.550Z,4.80
2023-03-29T09:54:18.770Z,5.15
2023-03-29T09:57:14.424Z,4.78
2023-03-29T09:59:42.614Z,4.43
2023-03-29T10:02:12.849Z,4.87
2023-03-29T10:04:43.097Z,5.63
2023-03-29T10:07:18.923Z,5.25
2023-03-29T10:09:53.394Z,5.00
2023-03-29T10:12:22.963Z,5.05
2023-03-29T10:14:54.247Z,4.80
2023-03-29T10:17:24.566Z,4.95
2023-03-29T10:19:57.695Z,5.60
2023-03-29T10:22:27.684Z,5.22
2023-03-29T10:24:57.885Z,5.38
2023-03-29T10:27:28.105Z,5.17
2023-03-29T10:29:57.550Z,5.22
2023-03-29T10:32:30.795Z,5.30
2023-03-29T10:35:09.233Z,5.30
2023-03-29T10:37:41.389Z,5.68
2023-03-29T10:40:21.782Z,5.33
2023-03-29T10:42:52.024Z,5.50
2023-03-29T10:45:21.421Z,5.60
2023-03-29T10:47:49.676Z,6.03
2023-03-29T10:50:18.724Z,6.05
2023-03-29T10:52:46.406Z,5.90
2023-03-29T10:55:14.930Z,6.05
2023-03-29T10:57:50.260Z,5.70
2023-03-29T11:00:24.841Z,5.63
2023-03-29T11:03:07.232Z,6.00
2023-03-29T11:05:43.701Z,5.73
2023-03-29T11:08:38.875Z,6.20
2023-03-29T11:11:20.702Z,6.47
2023-03-29T11:13:58.073Z,5.80
2023-03-29T11:16:34.745Z,6.43
2023-03-29T11:19:39.997Z,6.50
2023-03-29T11:22:14.648Z,6.20
2023-03-29T11:24:55.816Z,6.20
2023-03-29T11:27:34.269Z,6.55
2023-03-29T11:30:08.832Z,6.60
2023-03-29T11:32:48.986Z,6.87
2023-03-29T11:35:47.521Z,6.30
2023-03-29T11:38:24.377Z,6.68
2023-03-29T11:40:59.354Z,6.03
2023-03-29T11:43:32.239Z,7.30
2023-03-29T11:46:05.674Z,6.70
2023-03-29T11:48:39.522Z,6.10
2023-03-29T11:51:14.005Z,6.47
2023-03-29T11:53:51.224Z,7.28
2023-03-29T11:56:27.641Z,7.45
2023-03-29T11:59:01.389Z,6.70
2023-03-29T12:01:34.279Z,7.65
2023-03-29T12:04:06.623Z,7.55
2023-03-29T12:06:42.290Z,7.20
2023-03-29T12:09:24.153Z,7.25
2023-03-29T12:11:57.416Z,7.80
2023-03-29T12:14:29.209Z,7.60
2023-03-29T12:17:01.948Z,7.80
2023-03-29T12:19:32.652Z,7.65
2023-03-29T12:22:01.301Z,8.00
2023-03-29T12:24:34.367Z,8.90
2023-03-29T12:27:20.249Z,8.68
2023-03-29T12:30:07.386Z,8.52
2023-03-29T12:32:49.234Z,8.65
2023-03-29T12:35:42.764Z,8.15
2023-03-29T12:38:31.153Z,8.57
2023-03-29T12:41:41.505Z,8.88
2023-03-29T12:44:27.822Z,8.60
2023-03-29T12:47:20.299Z,8.75
2023-03-29T12:49:48.644Z,8.43
2023-03-29T12:52:27.398Z,8.40
2023-03-29T12:54:57.223Z,8.40
2023-03-29T12:57:39.419Z,8.93
2023-03-29T13:00:21.966Z,8.52
2023-03-29T13:03:01.831Z,9.00
2023-03-29T13:05:33.489Z,8.07
2023-03-29T13:08:12.359Z,8.40
2023-03-29T13:10:42.425Z,8.25
2023-03-29T13:13:18.068Z,8.13
2023-03-29T13:15:46.504Z,8.52
2023-03-29T13:18:34.465Z,7.53
2023-03-29T13:21:15.018Z,9.05
2023-03-29T13:23:54.166Z,8.40
2023-03-29T13:26:38.169Z,9.40
2023-03-29T13:29:22.343Z,8.02
2023-03-29T13:32:00.894Z,9.47
2023-03-29T13:34:39.975Z,8.30
2023-03-29T13:37:23.873Z,8.45
2023-03-29T13:39:53.661Z,7.85
2023-03-29T13:42:25.318Z,8.23
2023-03-29T13:45:05.857Z,8.50
2023-03-29T13:47:48.930Z,8.27
2023-03-29T13:50:36.342Z,8.40
2023-03-29T13:53:11.586Z,8.23
2023-03-29T13:55:46.540Z,8.70
2023-03-29T13:58:21.620Z,8.00
2023-03-29T14:00:54.206Z,8.10
2023-03-29T14:03:29.539Z,7.95
2023-03-29T14:05:59.995Z,8.63
2023-03-29T14:08:32.008Z,7.88
2023-03-29T14:11:03.288Z,7.30
2023-03-29T14:13:31.771Z,7.78
2023-03-29T14:16:04.252Z,9.25
2023-03-29T14:18:35.758Z,7.72
2023-03-29T14:21:03.891Z,8.00
2023-03-29T14:23:33.734Z,8.17
2023-03-29T14:26:09.081Z,8.13
2023-03-29T14:28:36.734Z,7.53
2023-03-29T14:31:07.780Z,7.95
2023-03-29T14:33:37.191Z,7.95
2023-03-29T14:36:06.356Z,7.87
2023-03-29T14:38:37.472Z,7.80
2023-03-29T14:41:06.301Z,7.72
2023-03-29T14:43:34.073Z,7.97
2023-03-29T14:46:06.804Z,9.07
2023-03-29T14:48:35.633Z,8.63
2023-03-29T14:51:04.045Z,7.90
2023-03-29T14:53:34.220Z,8.00
2023-03-29T14:56:02.426Z,7.68
2023-03-29T14:58:34.141Z,8.10
2023-03-29T15:01:08.051Z,8.33
2023-03-29T15:03:43.772Z,8.00
2023-03-29T15:06:14.399Z,8.05
2023-03-29T15:08:54.139Z,8.77
2023-03-29T15:11:30.728Z,10.45
2023-03-29T15:14:02.554Z,10.00
2023-03-29T15:16:32.664Z,9.57
2023-03-29T15:19:02.793Z,9.02
2023-03-29T15:21:34.039Z,8.85
2023-03-29T15:24:03.872Z,8.48
2023-03-29T15:26:33.623Z,9.10
2023-03-29T15:29:08.830Z,8.77
2023-03-29T15:31:39.610Z,8.88
2023-03-29T15:34:09.758Z,8.63
2023-03-29T15:36:42.084Z,8.20
2023-03-29T15:39:13.070Z,8.50
2023-03-29T15:41:40.992Z,9.60
2023-03-29T15:44:08.990Z,8.75
2023-03-29T15:46:38.180Z,8.88
2023-03-29T15:49:05.868Z,10.13
2023-03-29T15:51:33.457Z,9.90
2023-03-29T15:54:01.001Z,8.82
2023-03-29T15:56:28.546Z,9.75
2023-03-29T15:58:56.144Z,9.60
2023-03-29T16:01:33.594Z,9.02
2023-03-29T16:04:03.514Z,8.87
2023-03-29T16:06:31.214Z,9.82
2023-03-29T16:08:58.987Z,9.52
2023-03-29T16:11:26.903Z,9.75
2023-03-29T16:13:56.114Z,9.38
2023-03-29T16:16:23.815Z,10.13
2023-03-29T16:18:51.476Z,10.27
2023-03-29T16:21:23.352Z,9.93
2023-03-29T16:23:51.279Z,8.85
2023-03-29T16:26:18.854Z,10.05
2023-03-29T16:28:46.383Z,9.23
2023-03-29T16:31:14.945Z,9.38
2023-03-29T16:33:42.587Z,9.63
2023-03-29T16:36:11.586Z,9.68
2023-03-29T16:38:40.674Z,10.07
2023-03-29T16:41:08.566Z,10.07
2023-03-29T16:43:38.549Z,9.35
2023-03-29T16:46:08.505Z,9.70
2023-03-29T16:48:36.100Z,9.40
2023-03-29T16:51:03.930Z,10.45
2023-03-29T16:53:31.625Z,9.97
2023-03-29T16:56:00.770Z,9.65
2023-03-29T16:58:28.433Z,9.43
2023-03-29T17:00:56.861Z,9.23
2023-03-29T17:03:25.581Z,10.80
2023-03-29T17:05:54.699Z,9.83
2023-03-29T17:08:22.737Z,9.90
2023-03-29T17:10:53.067Z,10.93
2023-03-29T17:13:23.732Z,9.80
2023-03-29T17:15:52.784Z,10.70
2023-03-29T17:18:20.516Z,11.23
2023-03-29T17:20:48.247Z,11.00
2023-03-29T17:23:15.808Z,10.25
2023-03-29T17:25:43.611Z,11.63
2023-03-29T17:28:11.390Z,11.55
2023-03-29T17:30:40.680Z,11.43
2023-03-29T17:33:08.412Z,10.32
2023-03-29T17:35:36.064Z,10.82
2023-03-29T17:38:04.315Z,10.18
2023-03-29T17:40:31.854Z,11.45
2023-03-29T17:42:59.353Z,11.10
2023-03-29T17:45:27.148Z,11.57
2023-03-29T17:47:56.270Z,11.48
2023-03-29T17:50:23.936Z,11.63
2023-03-29T17:52:51.483Z,11.68
2023-03-29T17:55:20.900Z,11.70
2023-03-29T17:57:49.700Z,11.63
2023-03-29T18:00:18.014Z,12.40
2023-03-29T18:02:45.872Z,11.85
2023-03-29T18:05:14.932Z,12.70
2023-03-29T18:07:42.520Z,16.17
2023-03-29T18:10:11.210Z,11.82
2023-03-29T18:12:38.813Z,11.80
2023-03-29T18:15:07.812Z,12.48
2023-03-29T18:17:36.451Z,12.80
2023-03-29T18:20:10.904Z,12.93
2023-03-29T18:22:41.203Z,12.20
2023-03-29T18:25:10.007Z,12.55
2023-03-29T18:27:37.881Z,11.80
2023-03-29T18:30:07.376Z,12.73
2023-03-29T18:32:35.005Z,12.27
2023-03-29T18:35:03.098Z,13.25
2023-03-29T18:37:30.946Z,13.07
2023-03-29T18:40:00.053Z,12.88
2023-03-29T18:42:27.717Z,13.63
2023-03-29T18:44:55.259Z,13.27
2023-03-29T18:47:22.819Z,13.40
2023-03-29T18:49:50.329Z,13.30
2023-03-29T18:52:17.957Z,12.98
2023-03-29T18:54:45.458Z,13.25
2023-03-29T18:57:14.409Z,13.10
2023-03-29T18:59:41.943Z,13.63
2023-03-29T19:02:11.003Z,13.27
2023-03-29T19:04:38.551Z,13.07
2023-03-29T19:07:06.709Z,13.75
2023-03-29T19:09:34.217Z,12.90
2023-03-29T19:12:01.737Z,14.02
2023-03-29T19:14:30.973Z,13.68
2023-03-29T19:16:58.533Z,13.10
2023-03-29T19:19:27.075Z,12.60
2023-03-29T19:21:55.537Z,13.63
2023-03-29T19:24:24.366Z,14.25
2023-03-29T19:26:52.635Z,13.68
2023-03-29T19:29:20.527Z,13.40
2023-03-29T19:31:51.754Z,14.50
2023-03-29T19:34:22.756Z,14.40
2023-03-29T19:36:50.443Z,12.82
2023-03-29T19:39:18.076Z,16.23
2023-03-29T19:41:45.728Z,14.00
2023-03-29T19:44:13.666Z,13.02
2023-03-29T19:46:41.762Z,13.73
2023-03-29T19:49:13.381Z,13.57
2023-03-29T19:51:40.985Z,13.63
2023-03-29T19:54:08.641Z,13.30
2023-03-29T19:56:36.230Z,14.07
2023-03-29T19:59:03.797Z,14.20
2023-03-29T20:03:59.964Z,13.63
2023-03-29T20:06:28.894Z,14.02
2023-03-29T20:08:56.472Z,14.18
2023-03-29T20:11:24.545Z,14.90
2023-03-29T20:13:52.188Z,14.13
2023-03-29T20:16:24.176Z,14.40
2023-03-29T20:18:53.864Z,14.55
2023-03-29T20:21:21.472Z,14.40
2023-03-29T20:23:50.349Z,15.67
2023-03-29T20:26:18.100Z,14.30
2023-03-29T20:28:46.083Z,14.38
2023-03-29T20:31:13.756Z,13.90
2023-03-29T20:33:44.243Z,14.43
2023-03-29T20:36:12.717Z,14.10
2023-03-29T20:38:40.540Z,13.38
2023-03-29T20:41:10.692Z,14.13
2023-03-29T20:43:38.305Z,14.98
2023-03-29T20:46:14.194Z,14.55
2023-03-29T20:48:45.721Z,17.73
2023-03-29T20:51:14.180Z,15.55
2023-03-29T20:53:44.345Z,14.45
2023-03-29T20:56:13.932Z,13.93
2023-03-29T20:58:42.057Z,15.02
2023-03-29T21:01:09.955Z,14.23
2023-03-29T21:03:37.944Z,14.77
2023-03-29T21:06:05.801Z,14.88
2023-03-29T21:08:33.510Z,14.98
2023-03-29T21:11:01.239Z,15.25
2023-03-29T21:13:33.769Z,15.73
2023-03-29T21:16:04.080Z,14.18
2023-03-29T21:18:31.628Z,14.02
2023-03-29T21:20:59.219Z,15.80
2023-03-29T21:23:26.913Z,14.23
2023-03-29T21:25:54.462Z,13.80
2023-03-29T21:28:22.057Z,15.25
2023-03-29T21:30:50.942Z,14.95
2023-03-29T21:33:18.501Z,15.43
2023-03-29T21:35:48.349Z,15.25
2023-03-29T21:38:16.668Z,14.23
2023-03-29T21:40:44.214Z,14.45
2023-03-29T21:43:11.759Z,14.52
2023-03-29T21:45:39.347Z,14.38
2023-03-29T21:48:08.383Z,16.02
2023-03-29T21:50:37.153Z,15.43
2023-03-29T21:53:04.751Z,15.98
2023-03-29T21:55:34.134Z,16.17
2023-03-29T21:58:01.749Z,16.45
2023-03-29T22:00:29.574Z,16.38
2023-03-29T22:02:57.369Z,16.30
2023-03-29T22:05:27.124Z,16.35
2023-03-29T22:08:00.074Z,17.52
2023-03-29T22:10:27.917Z,17.05
2023-03-29T22:12:56.057Z,16.75
2023-03-29T22:15:24.236Z,16.30
2023-03-29T22:17:53.185Z,15.85
2023-03-29T22:20:22.121Z,16.42
2023-03-29T22:22:51.965Z,16.60
2023-03-29T22:25:20.618Z,16.92
2023-03-29T22:27:49.500Z,16.27
2023-03-29T22:30:18.026Z,17.38
2023-03-29T22:32:45.690Z,16.83
2023-03-29T22:35:13.254Z,16.92
2023-03-29T22:37:42.467Z,16.92
2023-03-29T22:40:13.164Z,17.33
2023-03-29T22:42:40.891Z,17.33
2023-03-29T22:45:09.864Z,16.63
2023-03-29T22:47:37.441Z,16.98
2023-03-29T22:50:06.144Z,16.80
2023-03-29T22:52:33.773Z,17.03
2023-03-29T22:55:01.284Z,17.65
2023-03-29T22:57:30.137Z,17.98
2023-03-29T22:59:57.667Z,17.25
2023-03-29T23:02:25.395Z,16.75
2023-03-29T23:04:52.985Z,17.20
2023-03-29T23:07:20.694Z,17.48
2023-03-29T23:09:48.317Z,16.83
2023-03-29T23:12:15.880Z,16.48
2023-03-29T23:14:45.084Z,16.73
2023-03-29T23:17:13.366Z,17.60
2023-03-29T23:19:41.467Z,16.45
2023-03-29T23:22:09.053Z,16.55
2023-03-29T23:24:36.651Z,16.75
2023-03-29T23:27:05.418Z,17.48
2023-03-29T23:29:34.458Z,17.67
2023-03-29T23:32:03.530Z,17.77
2023-03-29T23:34:31.426Z,17.73
2023-03-29T23:36:59.031Z,17.55
2023-03-29T23:39:26.631Z,16.27
2023-03-29T23:41:54.293Z,16.63
2023-03-29T23:44:21.934Z,17.60
2023-03-29T23:46:49.551Z,17.48
2023-03-29T23:49:18.540Z,16.92
2023-03-29T23:51:48.212Z,17.20
2023-03-29T23:54:17.164Z,17.80
2023-03-29T23:56:44.854Z,17.50
2023-03-29T23:59:12.491Z,18.23
